Time;durP1;ratioP1;P1;durP2;ratioP2;P2;SDS_P1;SDS_P2;PMS_P1;PMS_P2;Temp;Humidity;BMP_temperature;BMP_pressure;BME280_temperature;BME280_humidity;BME280_pressure;Samples;Min_cycle;Max_cycle;Signal;HPM_P1;HPM_P2
2021/10/12 00:00:13;;;;;;;1.98;0.95;;;;;;;6.56;79.43;100111.91;5106780;28;20038;-66
2021/10/12 00:02:38;;;;;;;0.77;0.50;;;;;;;6.52;79.49;100105.00;5106631;28;20461;-69
2021/10/12 00:05:04;;;;;;;1.45;0.63;;;;;;;6.52;79.65;100110.16;5106676;28;20034;-68
2021/10/12 00:07:31;;;;;;;2.33;0.80;;;;;;;6.49;79.49;100112.72;5106334;28;20471;-69
2021/10/12 00:09:56;;;;;;;3.10;0.70;;;;;;;6.45;79.64;100111.88;5106401;28;20027;-70
2021/10/12 00:12:23;;;;;;;1.15;0.60;;;;;;;6.43;79.74;100108.41;5106358;28;20028;-68
2021/10/12 00:14:48;;;;;;;2.35;0.73;;;;;;;6.41;79.53;100104.97;5106251;28;20035;-68
2021/10/12 00:17:14;;;;;;;2.10;0.82;;;;;;;6.35;79.67;100105.81;5106188;28;20020;-68
2021/10/12 00:19:40;;;;;;;4.38;0.90;;;;;;;6.29;79.55;100104.06;5106249;28;20052;-69
2021/10/12 00:22:06;;;;;;;1.33;0.73;;;;;;;6.25;79.54;100098.88;5105929;28;20036;-68
2021/10/12 00:24:32;;;;;;;1.23;0.65;;;;;;;6.23;79.74;100110.91;5106047;28;20031;-68
2021/10/12 00:26:57;;;;;;;1.85;0.95;;;;;;;6.17;79.68;100109.16;5105911;28;20020;-68
2021/10/12 00:29:22;;;;;;;3.60;1.00;;;;;;;6.09;79.81;100101.38;5106017;28;20024;-69
2021/10/12 00:31:48;;;;;;;2.72;0.80;;;;;;;6.01;79.90;100105.59;5105654;28;20023;-69
2021/10/12 00:34:13;;;;;;;1.20;0.80;;;;;;;5.95;79.88;100117.63;5105990;28;20058;-69
2021/10/12 00:36:39;;;;;;;1.05;0.73;;;;;;;5.89;80.13;100115.00;5104923;28;20087;-68
2021/10/12 00:39:05;;;;;;;3.53;0.70;;;;;;;5.83;80.13;100107.25;5105873;28;20104;-69
2021/10/12 00:41:30;;;;;;;1.65;0.70;;;;;;;5.78;80.27;100120.06;5106201;28;20380;-69
2021/10/12 00:43:55;;;;;;;1.50;0.80;;;;;;;5.74;80.06;100112.31;5105823;28;20020;-69
2021/10/12 00:46:21;;;;;;;3.55;1.00;;;;;;;5.73;80.59;100115.75;5105844;28;20043;-68
2021/10/12 00:48:47;;;;;;;0.98;0.60;;;;;;;5.70;80.81;100119.19;5105435;28;20020;-68
2021/10/12 00:51:12;;;;;;;1.13;0.70;;;;;;;5.66;80.94;100117.41;5105724;28;20062;-67
2021/10/12 00:53:38;;;;;;;4.13;1.00;;;;;;;5.59;80.78;100113.97;5105423;28;20028;-67
2021/10/12 00:56:04;;;;;;;2.00;0.50;;;;;;;5.61;81.15;100126.84;5105407;28;20026;-67
2021/10/12 00:58:29;;;;;;;2.63;1.10;;;;;;;5.49;81.12;100112.16;5105654;28;20067;-67
2021/10/12 01:00:55;;;;;;;0.93;0.70;;;;;;;5.55;81.19;100125.94;5105368;28;20031;-69
2021/10/12 01:03:20;;;;;;;2.65;0.63;;;;;;;5.51;81.28;100120.75;5105264;28;20076;-68
2021/10/12 01:05:46;;;;;;;1.15;0.60;;;;;;;5.50;81.39;100113.84;5105302;28;20107;-68
2021/10/12 01:08:11;;;;;;;0.57;0.52;;;;;;;5.49;81.74;100117.28;5105189;28;20031;-67
2021/10/12 01:10:36;;;;;;;1.30;0.60;;;;;;;5.54;81.68;100120.78;5105345;28;20085;-68
2021/10/12 01:13:02;;;;;;;2.15;0.70;;;;;;;5.53;81.70;100124.19;5105320;28;20028;-69
2021/10/12 01:15:31;;;;;;;1.67;0.82;;;;;;;5.55;81.89;100115.63;5105265;28;20024;-69
2021/10/12 01:17:56;;;;;;;1.35;0.68;;;;;;;5.54;81.91;100118.19;5104893;28;20012;-68
2021/10/12 01:20:24;;;;;;;1.13;0.85;;;;;;;5.58;81.88;100122.50;5105254;28;20047;-68
2021/10/12 01:22:50;;;;;;;1.42;0.70;;;;;;;5.58;82.01;100132.81;5104777;28;20094;-68
2021/10/12 01:25:16;;;;;;;1.08;0.60;;;;;;;5.53;81.96;100124.19;5104847;28;20055;-69
2021/10/12 01:27:42;;;;;;;1.73;1.10;;;;;;;5.55;82.17;100125.94;5104890;28;20032;-69
2021/10/12 01:30:10;;;;;;;1.48;0.55;;;;;;;5.54;82.10;100131.06;5105210;28;20023;-69
2021/10/12 01:32:40;;;;;;;1.08;0.60;;;;;;;5.52;82.20;100125.91;5104621;28;20023;-69
2021/10/12 01:35:06;;;;;;;1.80;0.80;;;;;;;5.52;82.29;100127.63;5104560;28;20091;-69
2021/10/12 01:37:31;;;;;;;1.35;0.93;;;;;;;5.49;82.10;100128.47;5120365;28;20020;-68
2021/10/12 01:39:57;;;;;;;3.90;0.93;;;;;;;5.47;82.21;100125.00;5120462;28;20331;-69
2021/10/12 01:42:23;;;;;;;0.63;0.52;;;;;;;5.40;82.38;100111.22;5104751;28;20024;-68
2021/10/12 01:44:48;;;;;;;2.17;1.15;;;;;;;5.42;82.36;100122.41;5104446;28;20020;-67
2021/10/12 01:47:14;;;;;;;2.00;0.90;;;;;;;5.37;82.27;100118.06;5104130;28;20061;-68
2021/10/12 01:49:39;;;;;;;1.83;0.90;;;;;;;5.36;82.31;100132.66;5104553;28;20024;-68
2021/10/12 01:52:05;;;;;;;2.35;0.90;;;;;;;5.31;82.46;100118.88;5104445;28;20032;-68
2021/10/12 01:54:31;;;;;;;2.30;1.00;;;;;;;5.21;82.48;100126.50;5104427;28;20161;-68
2021/10/12 01:56:56;;;;;;;1.58;0.90;;;;;;;5.23;82.55;100130.78;5104248;28;20028;-68
2021/10/12 01:59:21;;;;;;;4.55;1.10;;;;;;;5.21;82.39;100141.06;5104370;28;20487;-68
2021/10/12 02:01:47;;;;;;;2.08;1.40;;;;;;;5.12;82.79;100129.00;5104251;28;20155;-68
2021/10/12 02:04:13;;;;;;;1.45;0.82;;;;;;;5.10;82.96;100137.56;5104268;28;20028;-69
2021/10/12 02:06:38;;;;;;;2.60;1.00;;;;;;;5.05;82.93;100133.22;5104122;28;20028;-69
2021/10/12 02:09:05;;;;;;;3.22;1.00;;;;;;;5.02;83.03;100137.47;5104170;28;20051;-68
2021/10/12 02:11:30;;;;;;;1.30;1.00;;;;;;;4.95;83.14;100132.25;5104232;28;20075;-69
2021/10/12 02:13:56;;;;;;;3.15;1.05;;;;;;;4.98;83.47;100138.28;5104109;28;20031;-69
2021/10/12 02:16:21;;;;;;;3.13;1.00;;;;;;;4.96;83.50;100134.00;5103963;28;20483;-69
2021/10/12 02:18:47;;;;;;;2.97;1.00;;;;;;;4.92;83.44;100132.22;5103752;28;20016;-69
2021/10/12 02:21:12;;;;;;;5.82;1.13;;;;;;;4.87;83.47;100126.19;5103670;28;20020;-69
2021/10/12 02:23:37;;;;;;;1.88;1.13;;;;;;;4.88;83.53;100132.19;5104091;28;20024;-68
2021/10/12 02:26:03;;;;;;;2.95;1.00;;;;;;;4.84;83.52;100141.56;5103710;28;20496;-68
2021/10/12 02:28:29;;;;;;;2.50;0.80;;;;;;;4.88;83.78;100140.78;5104014;28;20028;-69
2021/10/12 02:30:54;;;;;;;1.17;0.68;;;;;;;4.87;83.89;100140.75;5119319;28;20107;-69
2021/10/12 02:33:19;;;;;;;1.23;0.80;;;;;;;4.87;83.96;100138.19;5103499;28;20019;-69
2021/10/12 02:35:45;;;;;;;2.35;0.80;;;;;;;4.92;84.38;100150.22;5103639;28;20059;-69
2021/10/12 02:38:10;;;;;;;1.27;0.90;;;;;;;4.99;84.21;100147.72;5103920;28;20043;-69
2021/10/12 02:40:36;;;;;;;1.60;0.70;;;;;;;5.05;84.22;100150.34;5103736;28;20020;-69
2021/10/12 02:43:01;;;;;;;1.50;1.10;;;;;;;5.15;84.21;100154.75;5103676;28;20032;-68
2021/10/12 02:45:26;;;;;;;1.92;0.68;;;;;;;5.17;84.09;100150.50;5103689;28;20464;-68
2021/10/12 02:47:52;;;;;;;2.08;0.60;;;;;;;5.18;83.92;100165.09;5103246;28;20031;-69
2021/10/12 02:50:17;;;;;;;1.50;0.80;;;;;;;5.21;84.06;100159.97;5103586;28;20330;-69
2021/10/12 02:52:42;;;;;;;1.60;0.70;;;;;;;5.24;84.14;100160.84;5103629;28;20028;-69
2021/10/12 02:55:08;;;;;;;1.33;0.82;;;;;;;5.27;84.09;100163.47;5102989;28;20038;-68
2021/10/12 02:57:33;;;;;;;1.42;0.77;;;;;;;5.27;84.08;100160.88;5103758;28;20039;-68
2021/10/12 02:59:59;;;;;;;1.65;0.75;;;;;;;5.29;83.99;100162.63;5107096;28;20158;-69
2021/10/12 03:02:25;;;;;;;1.42;0.60;;;;;;;5.39;84.11;100168.72;5107555;28;20028;-67
2021/10/12 03:04:50;;;;;;;1.23;0.60;;;;;;;5.39;84.02;100168.72;5107707;28;20490;-67
2021/10/12 03:07:16;;;;;;;2.58;0.60;;;;;;;5.49;83.86;100174.81;5107417;28;20023;-69
2021/10/12 03:09:41;;;;;;;1.73;0.80;;;;;;;5.53;83.95;100175.69;5089573;28;20038;-68
2021/10/12 03:12:06;;;;;;;1.00;0.70;;;;;;;5.55;83.87;100176.56;5107625;28;20111;-68
2021/10/12 03:14:32;;;;;;;1.48;0.68;;;;;;;5.57;83.63;100173.13;5107468;28;20035;-68
2021/10/12 03:16:58;;;;;;;1.33;0.88;;;;;;;5.57;83.76;100174.88;5107219;28;20069;-68
2021/10/12 03:19:23;;;;;;;1.23;0.80;;;;;;;5.62;83.83;100175.78;5107447;28;20450;-69
2021/10/12 03:22:00;;;;;;;1.30;0.65;;;;;;;5.68;83.73;100174.97;5106998;28;20043;-70
2021/10/12 03:24:25;;;;;;;0.93;0.68;;;;;;;5.72;83.73;100179.28;5107251;28;20038;-68
2021/10/12 03:26:51;;;;;;;1.45;0.70;;;;;;;5.74;83.51;100174.13;5122347;28;20123;-69
2021/10/12 03:29:16;;;;;;;2.22;0.93;;;;;;;5.75;83.62;100178.47;5105992;28;20020;-69
2021/10/12 03:31:41;;;;;;;1.30;0.63;;;;;;;5.68;83.33;100168.09;5107072;28;20024;-69
2021/10/12 03:34:07;;;;;;;1.20;0.60;;;;;;;5.65;83.33;100174.94;5106970;28;20027;-68
2021/10/12 03:36:32;;;;;;;0.93;0.68;;;;;;;5.58;83.26;100167.16;5106998;28;20047;-68
2021/10/12 03:38:58;;;;;;;1.20;0.60;;;;;;;5.56;83.23;100165.41;5107211;28;20023;-68
2021/10/12 03:41:23;;;;;;;0.98;0.60;;;;;;;5.54;83.50;100162.81;5106936;28;20132;-68
2021/10/12 03:43:48;;;;;;;4.25;0.70;;;;;;;5.48;83.21;100162.78;5106894;28;20024;-68
2021/10/12 03:46:14;;;;;;;0.75;0.57;;;;;;;5.46;83.47;100164.50;5106900;28;20047;-68
2021/10/12 03:48:39;;;;;;;1.80;0.75;;;;;;;5.40;83.26;100149.00;5106602;28;20024;-68
2021/10/12 03:51:07;;;;;;;0.80;0.60;;;;;;;5.47;83.38;100163.63;5106734;28;20023;-69
2021/10/12 03:53:36;;;;;;;1.75;0.60;;;;;;;5.48;83.52;100162.78;5106800;28;20492;-69
2021/10/12 03:56:02;;;;;;;1.15;0.60;;;;;;;5.48;83.52;100160.19;5106737;28;20035;-68
2021/10/12 03:58:28;;;;;;;0.93;0.70;;;;;;;5.45;83.60;100158.47;5106527;28;20019;-67
2021/10/12 04:00:53;;;;;;;1.90;0.60;;;;;;;5.47;83.61;100161.06;5106514;28;20026;-68
2021/10/12 04:03:18;;;;;;;2.55;0.63;;;;;;;5.44;83.47;100161.91;5106410;28;20024;-69
2021/10/12 04:05:44;;;;;;;0.65;0.50;;;;;;;5.45;83.56;100162.75;5106463;28;20024;-69
2021/10/12 04:08:09;;;;;;;1.00;0.60;;;;;;;5.42;83.55;100160.16;5106402;28;20043;-70
2021/10/12 04:10:35;;;;;;;1.98;0.63;;;;;;;5.44;83.77;100168.75;5086649;28;20020;-68
2021/10/12 04:13:02;;;;;;;1.08;0.80;;;;;;;5.43;83.71;100169.63;5106419;28;20058;-69
2021/10/12 04:15:27;;;;;;;4.20;1.20;;;;;;;5.44;83.75;100172.19;5106226;28;20030;-69
2021/10/12 04:17:52;;;;;;;1.67;0.65;;;;;;;5.45;83.93;100157.59;5105921;28;20088;-69
2021/10/12 04:20:23;;;;;;;0.98;0.68;;;;;;;5.54;83.75;100169.69;5106069;28;20031;-68
2021/10/12 04:22:49;;;;;;;0.80;0.80;;;;;;;5.54;83.68;100170.53;5105958;28;20048;-67
2021/10/12 04:25:14;;;;;;;0.90;0.70;;;;;;;5.58;83.45;100172.31;5106001;28;20062;-68
2021/10/12 04:27:39;;;;;;;0.82;0.60;;;;;;;5.60;83.52;100171.44;5106264;28;20016;-66
2021/10/12 04:30:05;;;;;;;1.08;0.70;;;;;;;5.60;83.67;100171.44;5106258;28;20024;-67
2021/10/12 04:32:31;;;;;;;2.20;0.60;;;;;;;5.60;83.54;100177.47;5105999;28;20035;-72
2021/10/12 04:34:56;;;;;;;1.60;0.70;;;;;;;5.55;83.31;100174.88;5105912;28;20051;-68
2021/10/12 04:37:21;;;;;;;1.10;0.50;;;;;;;5.53;83.33;100171.41;5105845;28;20042;-69
2021/10/12 04:39:47;;;;;;;1.15;0.63;;;;;;;5.56;83.63;100173.13;5105964;28;20020;-69
2021/10/12 04:42:12;;;;;;;1.08;0.60;;;;;;;5.56;83.54;100176.56;5105809;28;20031;-68
2021/10/12 04:44:38;;;;;;;1.80;0.80;;;;;;;5.55;83.47;100168.84;5105683;28;20682;-69
2021/10/12 04:47:03;;;;;;;1.33;0.70;;;;;;;5.55;83.66;100172.28;5105435;28;20453;-72
2021/10/12 04:49:28;;;;;;;3.60;0.70;;;;;;;5.44;83.50;100155.88;5105565;28;20039;-68
2021/10/12 04:51:54;;;;;;;1.30;0.75;;;;;;;5.55;83.56;100182.59;5105607;28;20035;-68
2021/10/12 04:54:19;;;;;;;0.98;0.80;;;;;;;5.53;83.52;100178.25;5086932;28;20035;-68
2021/10/12 04:56:44;;;;;;;1.23;0.73;;;;;;;5.50;83.55;100176.53;5105316;28;20530;-69
2021/10/12 04:59:10;;;;;;;0.73;0.70;;;;;;;5.46;83.63;100180.78;5105862;28;20016;-69
2021/10/12 05:01:35;;;;;;;5.38;0.93;;;;;;;5.45;83.51;100176.50;5105505;28;20126;-70
2021/10/12 05:04:00;;;;;;;3.80;0.70;;;;;;;5.44;83.45;100182.50;5105316;28;20048;-70
2021/10/12 05:06:26;;;;;;;3.65;0.70;;;;;;;5.43;83.71;100179.91;5105453;28;20297;-69
2021/10/12 05:08:51;;;;;;;0.85;0.70;;;;;;;5.32;83.79;100177.22;5105297;28;20519;-70
2021/10/12 05:11:17;;;;;;;2.03;0.80;;;;;;;5.31;83.73;100176.38;5105694;28;20058;-70
2021/10/12 05:13:42;;;;;;;0.88;0.70;;;;;;;5.32;83.70;100177.22;5105164;28;20023;-70
2021/10/12 05:16:12;;;;;;;1.02;0.60;;;;;;;5.28;83.83;100188.34;5104940;28;20050;-69
2021/10/12 05:18:41;;;;;;;2.10;0.80;;;;;;;5.21;83.67;100182.25;5105046;28;20236;-69
2021/10/12 05:21:06;;;;;;;1.13;1.02;;;;;;;5.19;83.77;100191.69;5104649;28;20027;-69
2021/10/12 05:23:32;;;;;;;0.88;0.63;;;;;;;5.10;83.78;100195.03;5105329;28;20028;-70
2021/10/12 05:26:01;;;;;;;3.08;1.00;;;;;;;5.06;83.85;100196.69;5087042;28;20042;-69
2021/10/12 05:28:27;;;;;;;1.40;1.10;;;;;;;4.96;83.99;100192.31;5105159;28;20020;-69
2021/10/12 05:30:52;;;;;;;3.85;0.75;;;;;;;4.93;84.02;100194.84;5104521;28;20028;-69
2021/10/12 05:33:20;;;;;;;1.75;1.00;;;;;;;4.91;83.95;100202.53;5104306;28;20452;-69
2021/10/12 05:35:48;;;;;;;2.50;0.90;;;;;;;4.83;83.60;100196.44;5120049;28;20119;-68
2021/10/12 05:38:14;;;;;;;2.60;1.17;;;;;;;4.81;84.05;100206.72;5104473;28;20019;-69
2021/10/12 05:40:41;;;;;;;3.00;0.75;;;;;;;4.77;84.04;100209.22;5104572;28;20077;-69
2021/10/12 05:43:06;;;;;;;1.40;0.85;;;;;;;4.65;84.13;100207.38;5104533;28;20031;-68
2021/10/12 05:45:33;;;;;;;2.72;1.02;;;;;;;4.65;84.28;100208.22;5104498;28;20055;-68
2021/10/12 05:48:00;;;;;;;2.08;0.80;;;;;;;4.61;84.57;100208.16;5104292;28;20028;-68
2021/10/12 05:50:25;;;;;;;1.40;0.75;;;;;;;4.56;84.45;100206.41;5104458;28;20032;-68
2021/10/12 05:53:21;;;;;;;2.10;0.90;;;;;;;4.48;84.59;100200.28;5104309;28;20026;-68
2021/10/12 05:58:31;;;;;;;2.67;0.82;;;;;;;4.50;84.83;100211.47;5104305;28;20054;-68
2021/10/12 06:00:58;;;;;;;1.98;1.00;;;;;;;4.48;84.83;100213.16;5104157;28;20047;-67
2021/10/12 06:03:23;;;;;;;2.15;0.98;;;;;;;4.46;84.87;100208.00;5103663;28;20024;-69
2021/10/12 06:05:49;;;;;;;2.30;1.05;;;;;;;4.49;85.03;100217.44;5104056;28;20023;-68
2021/10/12 06:08:15;;;;;;;2.22;0.85;;;;;;;4.46;84.91;100220.84;5103960;28;20024;-69
2021/10/12 06:10:40;;;;;;;1.30;0.80;;;;;;;4.49;85.01;100226.88;5104083;28;20031;-69
2021/10/12 06:13:10;;;;;;;2.97;1.10;;;;;;;4.47;85.02;100227.69;5103983;28;20396;-69
2021/10/12 06:15:36;;;;;;;1.38;1.00;;;;;;;4.46;85.09;100223.41;5103786;28;20027;-67
2021/10/12 06:18:02;;;;;;;1.38;0.80;;;;;;;4.45;85.07;100224.25;5103817;28;20032;-68
2021/10/12 06:20:27;;;;;;;2.35;1.02;;;;;;;4.47;85.06;100229.44;5104018;28;20020;-68
2021/10/12 06:22:52;;;;;;;1.55;1.10;;;;;;;4.46;84.90;100231.13;5103660;28;20043;-67
2021/10/12 06:25:18;;;;;;;2.45;1.15;;;;;;;4.40;85.02;100228.47;5103627;28;20031;-68
2021/10/12 06:27:44;;;;;;;1.92;0.95;;;;;;;4.39;85.05;100221.63;5103602;28;20023;-67
2021/10/12 06:30:10;;;;;;;1.80;1.00;;;;;;;4.41;85.34;100237.91;5103476;28;20020;-68
2021/10/12 06:32:35;;;;;;;1.67;0.95;;;;;;;4.47;85.34;100232.00;5103003;28;20447;-68
2021/10/12 06:35:01;;;;;;;3.25;1.05;;;;;;;4.50;85.25;100238.88;5103080;28;20020;-68
2021/10/12 06:37:26;;;;;;;2.20;1.17;;;;;;;4.32;85.45;100212.06;5103386;28;20110;-68
2021/10/12 06:39:52;;;;;;;1.65;1.05;;;;;;;4.54;85.23;100243.22;5103289;28;20051;-68
2021/10/12 06:42:17;;;;;;;2.03;1.00;;;;;;;4.56;85.21;100247.53;5103293;28;20024;-68
2021/10/12 06:44:42;;;;;;;2.60;1.55;;;;;;;4.61;85.32;100251.88;5103504;28;20379;-69
2021/10/12 06:47:08;;;;;;;2.33;1.20;;;;;;;4.68;85.34;100251.97;5103197;28;20024;-69
2021/10/12 06:49:33;;;;;;;4.97;0.88;;;;;;;4.76;85.25;100244.34;5103447;28;20099;-69
2021/10/12 06:51:58;;;;;;;2.45;0.80;;;;;;;4.83;85.30;100245.31;5103555;28;20035;-69
2021/10/12 06:54:24;;;;;;;1.23;0.82;;;;;;;4.83;85.10;100251.34;5103665;28;20027;-68
2021/10/12 06:56:49;;;;;;;5.72;0.82;;;;;;;4.86;84.85;100252.22;5103397;28;20024;-68
2021/10/12 06:59:15;;;;;;;2.10;0.80;;;;;;;4.89;84.96;100254.84;5085535;28;20051;-68
2021/10/12 07:01:40;;;;;;;2.40;0.80;;;;;;;4.87;85.04;100241.94;5103561;28;20028;-68
2021/10/12 07:04:05;;;;;;;5.47;1.00;;;;;;;4.96;84.94;100252.34;5103294;28;20035;-68
2021/10/12 07:06:31;;;;;;;3.83;0.80;;;;;;;5.01;84.69;100247.25;5103356;28;20475;-68
2021/10/12 07:08:56;;;;;;;2.53;1.00;;;;;;;5.06;85.01;100253.28;5103435;28;20024;-69
2021/10/12 07:11:22;;;;;;;1.88;1.10;;;;;;;5.24;85.20;100261.25;5103344;28;20019;-68
2021/10/12 07:13:48;;;;;;;3.60;1.00;;;;;;;5.55;85.49;100267.56;5103265;28;20035;-67
2021/10/12 07:16:15;;;;;;;3.03;1.30;;;;;;;5.92;85.88;100258.44;5102973;28;20024;-68
2021/10/12 07:18:41;;;;;;;1.70;0.75;;;;;;;6.35;86.21;100257.94;5102569;28;20017;-67
2021/10/12 07:21:07;;;;;;;5.35;0.95;;;;;;;6.68;85.90;100263.28;5101854;28;20225;-67
2021/10/12 07:23:34;;;;;;;2.58;1.00;;;;;;;6.85;85.11;100270.25;5101991;28;20035;-66
2021/10/12 07:25:59;;;;;;;2.47;0.95;;;;;;;7.08;84.35;100267.75;5102069;28;20032;-67
2021/10/12 07:28:25;;;;;;;1.95;0.80;;;;;;;7.49;84.82;100260.16;5101821;28;20123;-68
2021/10/12 07:30:50;;;;;;;2.33;0.70;;;;;;;8.03;83.80;100275.72;5102942;28;20026;-67
2021/10/12 07:33:16;;;;;;;2.10;0.85;;;;;;;8.30;80.86;100263.63;5102732;28;20020;-66
2021/10/12 07:35:43;;;;;;;1.35;0.60;;;;;;;8.55;79.48;100265.31;5103285;28;20024;-67
2021/10/12 07:38:12;;;;;;;2.15;0.77;;;;;;;8.70;78.54;100273.91;5103142;28;20021;-67
2021/10/12 07:40:39;;;;;;;3.00;0.75;;;;;;;9.11;79.60;100272.91;5102986;28;20031;-67
2021/10/12 07:43:05;;;;;;;1.73;0.70;;;;;;;9.66;80.32;100276.03;5102932;28;20017;-68
2021/10/12 07:45:30;;;;;;;3.42;0.70;;;;;;;10.16;80.19;100280.84;5105119;28;20024;-68
2021/10/12 07:47:58;;;;;;;2.55;0.85;;;;;;;10.48;76.96;100276.25;5106587;28;20103;-68
2021/10/12 07:50:23;;;;;;;1.60;0.90;;;;;;;11.02;76.58;100286.94;5106918;28;20050;-67
2021/10/12 07:52:49;;;;;;;4.13;0.90;;;;;;;11.69;74.78;100283.44;5106714;28;20361;-67
2021/10/12 07:55:26;;;;;;;2.72;0.95;;;;;;;12.42;72.24;100280.53;5106680;28;20024;-67
2021/10/12 07:57:51;;;;;;;1.35;0.60;;;;;;;13.00;67.81;100288.13;5106740;28;20099;-68
2021/10/12 08:00:16;;;;;;;1.33;0.63;;;;;;;13.26;66.56;100286.72;5106473;28;20046;-67
2021/10/12 08:02:42;;;;;;;2.28;0.73;;;;;;;13.30;63.50;100282.28;5088101;28;20433;-67
2021/10/12 08:05:07;;;;;;;2.53;0.80;;;;;;;13.26;62.54;100286.72;5106355;28;20110;-67
2021/10/12 08:07:33;;;;;;;2.78;0.60;;;;;;;13.16;59.47;100291.28;5087831;28;20383;-67
2021/10/12 08:09:58;;;;;;;1.23;0.50;;;;;;;12.74;57.05;100294.72;5106286;28;20024;-68
2021/10/12 08:12:24;;;;;;;2.97;0.77;;;;;;;12.28;57.70;100292.06;5122004;28;20047;-67
2021/10/12 08:14:54;;;;;;;2.25;0.70;;;;;;;12.18;57.89;100303.50;5088098;28;20024;-67
2021/10/12 08:17:19;;;;;;;2.47;0.75;;;;;;;12.25;57.44;100312.94;5105858;28;20020;-67
2021/10/12 08:19:45;;;;;;;5.75;0.70;;;;;;;12.37;57.50;100310.13;5106187;28;20383;-67
2021/10/12 08:22:10;;;;;;;3.38;0.80;;;;;;;12.70;55.98;100300.88;5105815;28;20079;-68
2021/10/12 08:24:35;;;;;;;3.88;1.08;;;;;;;12.79;56.03;100298.09;5105974;28;20074;-68
2021/10/12 08:27:01;;;;;;;0.90;0.68;;;;;;;13.12;56.24;100313.94;5106000;28;20024;-67
2021/10/12 08:29:27;;;;;;;2.45;0.70;;;;;;;13.48;54.11;100304.50;5105864;28;20058;-67
2021/10/12 08:31:52;;;;;;;1.95;0.70;;;;;;;13.58;54.65;100308.66;5105839;28;20020;-67
2021/10/12 08:34:18;;;;;;;1.23;0.70;;;;;;;13.66;54.32;100312.84;5105832;28;20043;-67
2021/10/12 08:36:43;;;;;;;2.03;0.60;;;;;;;13.99;54.51;100316.38;5105829;28;20054;-67
2021/10/12 08:39:09;;;;;;;1.08;0.70;;;;;;;14.41;51.95;100313.66;5105717;28;20510;-66
2021/10/12 08:41:42;;;;;;;1.27;0.60;;;;;;;14.39;51.94;100311.09;5105828;28;20024;-66
2021/10/12 08:44:07;;;;;;;1.92;0.55;;;;;;;14.83;53.57;100310.81;5088091;28;20464;-67
2021/10/12 08:46:35;;;;;;;1.27;0.60;;;;;;;15.44;52.70;100332.63;5105894;28;20047;-67
2021/10/12 08:49:00;;;;;;;2.13;0.88;;;;;;;15.95;52.19;100331.94;5087453;28;20233;-66
2021/10/12 08:51:27;;;;;;;0.93;0.50;;;;;;;16.42;50.90;100325.22;5105904;28;20020;-67
2021/10/12 08:53:53;;;;;;;4.18;0.75;;;;;;;16.72;49.76;100330.28;5105735;28;20032;-67
2021/10/12 08:56:18;;;;;;;1.75;0.80;;;;;;;16.80;48.36;100324.78;5104829;28;20490;-67
2021/10/12 08:58:44;;;;;;;2.15;0.80;;;;;;;16.94;47.83;100322.50;5105734;28;20044;-66
2021/10/12 09:01:12;;;;;;;1.23;0.77;;;;;;;16.81;46.00;100313.38;5105475;28;20094;-67
2021/10/12 09:03:51;;;;;;;2.45;0.90;;;;;;;16.42;46.23;100325.22;5105420;28;20091;-67
2021/10/12 09:06:30;;;;;;;1.45;0.75;;;;;;;16.41;45.89;100323.50;5105477;28;20483;-67
2021/10/12 09:09:17;;;;;;;1.85;0.75;;;;;;;16.13;45.43;100327.91;5105389;28;20024;-68
2021/10/12 09:11:43;;;;;;;1.40;0.65;;;;;;;15.89;44.86;100326.91;5087220;28;20020;-67
2021/10/12 09:14:12;;;;;;;1.10;0.85;;;;;;;15.59;44.05;100325.22;5105227;28;20035;-67
2021/10/12 09:16:43;;;;;;;1.30;0.73;;;;;;;15.69;45.71;100329.25;5105173;28;20105;-67
2021/10/12 09:19:16;;;;;;;3.17;1.08;;;;;;;16.04;42.86;100323.81;5105180;28;20031;-66
2021/10/12 09:21:47;;;;;;;2.20;0.60;;;;;;;16.07;40.90;100310.63;5104842;28;20098;-67
2021/10/12 09:24:13;;;;;;;2.13;0.80;;;;;;;16.28;42.73;100313.44;5104938;28;20044;-67
2021/10/12 09:26:50;;;;;;;0.80;0.55;;;;;;;16.71;41.92;100311.09;5104958;28;20541;-68
2021/10/12 09:30:09;;;;;;;1.67;0.70;;;;;;;16.63;39.60;100307.03;5104683;28;20020;-67
2021/10/12 09:32:15;;;;;;;1.52;0.68;;;;;;;16.37;40.27;100306.19;5096355;28;20036;-67
2021/10/12 09:34:44;;;;;;;2.55;0.73;;;;;;;16.79;41.70;100304.72;5105019;28;20039;-67
2021/10/12 09:37:10;;;;;;;0.82;0.40;;;;;;;17.21;37.67;100292.72;5104592;28;20027;-66
2021/10/12 09:39:45;;;;;;;0.90;0.60;;;;;;;16.96;38.67;100302.31;5104538;28;20020;-67
2021/10/12 09:42:13;;;;;;;1.52;0.60;;;;;;;17.53;39.89;100311.59;5104679;28;20023;-67
2021/10/12 09:44:56;;;;;;;1.23;0.50;;;;;;;18.26;39.35;100302.56;5104598;28;20042;-67
2021/10/12 09:47:22;;;;;;;2.33;0.70;;;;;;;18.29;34.66;100306.88;5104083;28;20024;-67
2021/10/12 09:49:48;;;;;;;2.33;0.70;;;;;;;18.20;34.51;100308.09;5086244;28;20031;-68
2021/10/12 09:52:16;;;;;;;1.40;0.60;;;;;;;18.09;33.84;100317.25;5104290;28;20043;-68
2021/10/12 09:54:49;;;;;;;1.50;0.65;;;;;;;18.39;33.17;100305.53;5104239;28;20050;-67
2021/10/12 09:57:19;;;;;;;2.10;0.60;;;;;;;18.56;32.80;100314.47;5103860;28;20020;-69
2021/10/12 09:59:45;;;;;;;3.22;0.55;;;;;;;18.65;33.52;100302.69;5103997;28;20320;-67
2021/10/12 10:02:21;;;;;;;2.95;0.70;;;;;;;19.40;33.61;100315.16;5104066;28;20357;-67
2021/10/12 10:04:48;;;;;;;1.50;0.68;;;;;;;20.16;31.84;100313.31;5104139;28;20051;-68
2021/10/12 10:07:28;;;;;;;1.63;0.60;;;;;;;20.86;31.98;100300.97;5103912;28;20569;-68
2021/10/12 10:10:00;;;;;;;2.83;0.50;;;;;;;21.59;31.59;100302.28;5104140;28;20193;-68
2021/10/12 10:12:26;;;;;;;0.65;0.47;;;;;;;21.25;29.44;100299.75;5103951;28;20107;-68
2021/10/12 10:14:51;;;;;;;0.95;0.55;;;;;;;20.38;29.73;100299.91;5103911;28;20126;-68
2021/10/12 10:17:17;;;;;;;1.33;0.60;;;;;;;19.63;31.34;100306.16;5103566;28;20024;-68
2021/10/12 10:19:45;;;;;;;4.68;0.70;;;;;;;19.62;32.19;100308.84;5104191;28;20371;-68
2021/10/12 10:22:37;;;;;;;0.50;0.30;;;;;;;20.02;32.65;100309.59;5103697;28;20062;-68
2021/10/12 10:25:26;;;;;;;1.83;0.60;;;;;;;20.51;31.95;100300.09;5103824;28;20024;-69
2021/10/12 10:27:52;;;;;;;1.77;0.40;;;;;;;20.81;30.67;100312.59;5103761;28;20024;-68
2021/10/12 10:30:26;;;;;;;1.45;0.43;;;;;;;20.53;29.75;100308.78;5104114;28;20028;-68
2021/10/12 10:32:54;;;;;;;2.13;0.30;;;;;;;20.41;30.17;100307.66;5119566;28;20031;-69
2021/10/12 10:35:55;;;;;;;0.85;0.40;;;;;;;19.90;29.11;100305.75;5085554;28;20028;-69
2021/10/12 10:38:20;;;;;;;0.52;0.30;;;;;;;18.70;28.99;100320.00;5096623;28;20032;-68
2021/10/12 10:41:08;;;;;;;0.82;0.47;;;;;;;18.09;31.08;100317.25;5103914;28;20111;-68
2021/10/12 10:43:48;;;;;;;0.80;0.40;;;;;;;18.04;32.14;100318.34;5078606;28;20038;-67
2021/10/12 10:46:35;;;;;;;1.15;0.47;;;;;;;18.35;32.01;100313.63;5119388;28;20027;-68
2021/10/12 10:49:07;;;;;;;1.55;0.45;;;;;;;18.27;30.32;100311.31;5103196;28;20058;-69
2021/10/12 10:51:51;;;;;;;0.75;0.57;;;;;;;17.42;30.93;100300.66;5103721;28;20016;-68
2021/10/12 10:54:39;;;;;;;0.50;0.40;;;;;;;17.22;32.15;100313.63;5103324;28;20016;-68
2021/10/12 10:57:34;;;;;;;0.63;0.40;;;;;;;17.77;32.21;100311.56;5103400;28;20106;-68
2021/10/12 11:00:11;;;;;;;0.75;0.40;;;;;;;18.09;32.05;100312.00;5094314;28;20056;-68
2021/10/12 11:02:44;;;;;;;1.85;0.80;;;;;;;18.35;31.02;100311.00;5102994;28;20059;-68
2021/10/12 11:05:28;;;;;;;0.50;0.40;;;;;;;18.17;30.18;100300.34;5103219;28;20028;-69
2021/10/12 11:08:09;;;;;;;3.22;0.50;;;;;;;17.68;31.18;100317.16;5103205;28;20489;-68
2021/10/12 11:10:34;;;;;;;1.45;0.43;;;;;;;17.53;31.56;100314.22;5103346;28;20027;-68
2021/10/12 11:13:00;;;;;;;0.95;0.50;;;;;;;17.73;31.27;100327.50;5103286;28;20020;-68
2021/10/12 11:15:25;;;;;;;0.60;0.47;;;;;;;17.21;31.24;100308.44;5103186;28;20222;-68
2021/10/12 11:18:07;;;;;;;1.27;0.40;;;;;;;15.38;33.19;100330.19;5102922;28;20019;-70
2021/10/12 11:20:48;;;;;;;0.50;0.43;;;;;;;13.81;35.76;100328.16;5105923;28;20027;-68
2021/10/12 11:23:21;;;;;;;1.38;0.45;;;;;;;12.95;37.00;100316.91;5107418;28;20040;-68
2021/10/12 11:26:00;;;;;;;1.02;0.45;;;;;;;12.11;38.77;100327.03;5106941;28;20367;-68
2021/10/12 11:28:52;;;;;;;0.68;0.50;;;;;;;11.50;40.43;100311.44;5106339;28;20028;-70
2021/10/12 11:31:22;;;;;;;0.57;0.50;;;;;;;11.13;41.56;100307.59;5106401;28;20061;-69
2021/10/12 11:33:50;;;;;;;0.82;0.50;;;;;;;10.82;42.12;100314.00;5106823;28;20260;-69
2021/10/12 11:36:21;;;;;;;0.80;0.47;;;;;;;10.57;42.91;100316.84;5107053;28;20072;-69